createdAt,value
2023-04-18T00:01:31.908Z,101014.34
2023-04-18T00:04:03.504Z,101014.09
2023-04-18T00:06:34.162Z,101023.47
2023-04-18T00:09:05.072Z,101019.72
2023-04-18T00:11:36.292Z,101023.03
2023-04-18T00:14:07.846Z,101035.09
2023-04-18T00:16:39.520Z,101037.81
2023-04-18T00:19:10.387Z,101034.66
2023-04-18T00:21:46.178Z,101038.00
2023-04-18T00:24:16.319Z,101048.38
2023-04-18T00:26:46.500Z,101042.97
2023-04-18T00:29:16.532Z,101042.53
2023-04-18T00:31:46.650Z,101047.53
2023-04-18T00:34:31.366Z,101038.56
2023-04-18T00:37:01.665Z,101044.81
2023-04-18T00:39:31.949Z,101052.94
2023-04-18T00:42:02.968Z,101055.22
2023-04-18T00:44:33.416Z,101056.66
2023-04-18T00:47:03.528Z,101056.47
2023-04-18T00:49:34.525Z,101065.00
2023-04-18T00:52:04.916Z,101062.31
2023-04-18T00:54:36.069Z,101077.47
2023-04-18T00:57:06.607Z,101078.94
2023-04-18T00:59:37.228Z,101081.22
2023-04-18T01:02:07.694Z,101080.81
2023-04-18T01:04:38.880Z,101088.50
2023-04-18T01:07:12.723Z,101085.38
2023-04-18T01:09:43.184Z,101093.88
2023-04-18T01:12:13.527Z,101084.50
2023-04-18T01:14:46.693Z,101087.81
2023-04-18T01:17:17.756Z,101094.69
2023-04-18T01:19:50.592Z,101089.03
2023-04-18T01:22:21.449Z,101097.56
2023-04-18T01:24:51.919Z,101099.00
2023-04-18T01:27:22.210Z,101099.63
2023-04-18T01:29:52.285Z,101101.06
2023-04-18T01:32:23.223Z,101091.69
2023-04-18T01:34:53.441Z,101097.72
2023-04-18T01:37:24.043Z,101092.88
2023-04-18T01:39:55.234Z,101092.69
2023-04-18T01:42:25.903Z,101096.84
2023-04-18T01:44:56.040Z,101089.34
2023-04-18T01:47:26.145Z,101103.47
2023-04-18T01:49:56.478Z,101104.94
2023-04-18T01:52:27.579Z,101099.31
2023-04-18T01:54:57.754Z,101097.22
2023-04-18T01:57:28.045Z,101100.53
2023-04-18T01:59:58.536Z,101101.16
2023-04-18T02:02:28.781Z,101100.94
2023-04-18T02:04:58.941Z,101105.09
2023-04-18T02:07:29.146Z,101097.56
2023-04-18T02:10:00.187Z,101096.28
2023-04-18T02:12:30.277Z,101098.78
2023-04-18T02:15:00.404Z,101104.59
2023-04-18T02:17:31.914Z,101100.00
2023-04-18T02:20:02.401Z,101098.75
2023-04-18T02:22:32.902Z,101095.81
2023-04-18T02:25:04.295Z,101094.56
2023-04-18T02:27:34.938Z,101093.25
2023-04-18T02:30:05.599Z,101094.94
2023-04-18T02:32:37.483Z,101090.72
2023-04-18T02:35:08.377Z,101086.97
2023-04-18T02:37:38.436Z,101084.00
2023-04-18T02:40:08.918Z,101082.75
2023-04-18T02:42:39.111Z,101079.59
2023-04-18T02:45:10.262Z,101076.44
2023-04-18T02:47:53.700Z,101072.44
2023-04-18T02:50:25.701Z,101071.16
2023-04-18T02:52:58.080Z,101066.38
2023-04-18T02:55:37.026Z,101055.09
2023-04-18T02:58:07.575Z,101065.50
2023-04-18T03:01:09.794Z,101059.84
2023-04-18T03:04:00.055Z,101060.22
2023-04-18T03:07:00.840Z,101022.25
2023-04-18T03:09:34.766Z,101058.34
2023-04-18T03:12:10.303Z,101062.88
2023-04-18T03:14:40.597Z,101061.59
2023-04-18T03:17:11.480Z,101066.56
2023-04-18T03:19:46.852Z,101060.69
2023-04-18T03:22:18.897Z,101056.69
2023-04-18T03:24:56.654Z,101049.16
2023-04-18T03:27:42.019Z,101039.75
2023-04-18T03:30:12.821Z,101048.50
2023-04-18T03:32:45.083Z,101045.31
2023-04-18T03:35:16.676Z,101040.50
2023-04-18T03:37:46.981Z,101036.72
2023-04-18T03:40:24.865Z,101041.94
2023-04-18T03:42:57.845Z,101044.41
2023-04-18T03:45:27.951Z,101033.34
2023-04-18T03:47:58.914Z,101019.53
2023-04-18T03:50:30.074Z,101019.53
2023-04-18T03:53:01.073Z,101022.03
2023-04-18T03:55:35.649Z,101019.06
2023-04-18T03:58:06.288Z,101018.25
2023-04-18T04:00:37.312Z,101014.47
2023-04-18T04:03:11.566Z,101011.75
2023-04-18T04:05:42.997Z,101012.34
2023-04-18T04:08:13.180Z,101014.88
2023-04-18T04:10:43.300Z,101004.03
2023-04-18T04:13:14.210Z,100980.38
2023-04-18T04:15:44.893Z,101003.56
2023-04-18T04:18:15.213Z,101002.50
2023-04-18T04:20:50.042Z,101007.72
2023-04-18T04:23:35.846Z,101004.75
2023-04-18T04:26:06.229Z,100998.28
2023-04-18T04:28:47.857Z,101003.47
2023-04-18T04:31:23.624Z,100993.44
2023-04-18T04:33:54.762Z,100990.50
2023-04-18T04:36:32.086Z,100985.06
2023-04-18T04:39:07.463Z,100982.97
2023-04-18T04:41:54.827Z,100974.56
2023-04-18T04:44:28.425Z,100972.66
2023-04-18T04:46:59.112Z,100969.13
2023-04-18T04:49:35.586Z,100957.81
2023-04-18T04:52:07.865Z,100964.91
2023-04-18T04:54:38.003Z,100951.31
2023-04-18T04:57:11.095Z,100948.63
2023-04-18T04:59:41.585Z,100949.19
2023-04-18T05:02:11.917Z,100942.72
2023-04-18T05:04:42.181Z,100938.94
2023-04-18T05:07:12.608Z,100921.59
2023-04-18T05:09:42.781Z,100931.38
2023-04-18T05:12:12.845Z,100920.53
2023-04-18T05:14:43.018Z,100923.84
2023-04-18T05:17:13.195Z,100913.81
2023-04-18T05:19:45.485Z,100864.00
2023-04-18T05:22:15.485Z,100903.53
2023-04-18T05:24:45.596Z,100896.81
2023-04-18T05:27:17.696Z,100895.75
2023-04-18T05:29:49.362Z,100888.19
2023-04-18T05:32:19.509Z,100880.63
2023-04-18T05:34:50.097Z,100875.19
2023-04-18T05:37:20.877Z,100873.06
2023-04-18T05:39:51.291Z,100867.41
2023-04-18T05:42:21.798Z,100862.53
2023-04-18T05:44:52.016Z,100860.44
2023-04-18T05:47:22.499Z,100857.50
2023-04-18T05:49:52.898Z,100841.75
2023-04-18T05:52:23.078Z,100853.22
2023-04-18T05:54:53.584Z,100843.19
2023-04-18T05:57:23.672Z,100834.59
2023-04-18T05:59:53.860Z,100834.38
2023-04-18T06:02:24.104Z,100832.25
2023-04-18T06:04:54.415Z,100830.09
2023-04-18T06:07:26.721Z,100817.09
2023-04-18T06:09:57.423Z,100812.28
2023-04-18T06:12:27.495Z,100812.88
2023-04-18T06:14:57.636Z,100800.69
2023-04-18T06:17:27.800Z,100802.09
2023-04-18T06:19:57.991Z,100799.13
2023-04-18T06:22:28.142Z,100795.13
2023-04-18T06:24:58.339Z,100793.00
2023-04-18T06:27:31.434Z,100792.53
2023-04-18T06:30:02.811Z,100776.81
2023-04-18T06:32:33.623Z,100778.19
2023-04-18T06:35:04.007Z,100776.06
2023-04-18T06:37:45.411Z,100776.41
2023-04-18T06:40:15.816Z,100770.50
2023-04-18T06:42:45.930Z,100763.75
2023-04-18T06:45:16.004Z,100757.00
2023-04-18T06:47:46.492Z,100743.75
2023-04-18T06:50:16.876Z,100739.75
2023-04-18T06:52:47.236Z,100739.28
2023-04-18T06:55:17.696Z,100737.13
2023-04-18T06:57:47.974Z,100727.44
2023-04-18T07:00:18.184Z,100734.28
2023-04-18T07:02:48.513Z,100731.91
2023-04-18T07:05:18.979Z,100720.53
2023-04-18T07:07:49.182Z,100725.47
2023-04-18T07:10:19.654Z,100719.53
2023-04-18T07:12:49.695Z,100710.66
2023-04-18T07:15:20.105Z,100710.97
2023-04-18T07:17:50.334Z,100713.81
2023-04-18T07:20:20.454Z,100716.03
2023-04-18T07:22:50.667Z,100712.00
2023-04-18T07:25:21.239Z,100707.97
2023-04-18T07:27:51.751Z,100701.78
2023-04-18T07:30:21.823Z,100696.69
2023-04-18T07:32:52.015Z,100700.00
2023-04-18T07:35:23.257Z,100693.81
2023-04-18T07:37:55.229Z,100680.53
2023-04-18T07:40:25.310Z,100681.69
2023-04-18T07:42:55.404Z,100674.09
2023-04-18T07:45:25.705Z,100669.81
2023-04-18T07:47:56.156Z,100684.00
2023-04-18T07:50:26.346Z,100686.81
2023-04-18T07:52:56.528Z,100675.41
2023-04-18T07:55:26.733Z,100677.63
2023-04-18T07:57:56.959Z,100673.59
2023-04-18T08:00:27.720Z,100666.81
2023-04-18T08:02:58.364Z,100667.94
2023-04-18T08:05:29.247Z,100652.19
2023-04-18T08:07:59.735Z,100661.19
2023-04-18T08:10:30.486Z,100660.69
2023-04-18T08:13:01.512Z,100655.59
2023-04-18T08:15:33.732Z,100658.91
2023-04-18T08:18:04.486Z,100651.28
2023-04-18T08:20:35.874Z,100646.66
2023-04-18T08:23:09.553Z,100645.34
2023-04-18T08:25:41.588Z,100643.19
2023-04-18T08:28:12.427Z,100645.69
2023-04-18T08:30:43.848Z,100640.78
2023-04-18T08:33:14.013Z,100635.09
2023-04-18T08:35:44.568Z,100629.66
2023-04-18T08:38:15.465Z,100629.13
2023-04-18T08:40:45.831Z,100630.78
2023-04-18T08:43:17.088Z,100632.44
2023-04-18T08:45:47.361Z,100627.53
2023-04-18T08:48:17.765Z,100623.75
2023-04-18T08:50:49.180Z,100622.66
2023-04-18T08:53:20.273Z,100618.88
2023-04-18T08:55:55.422Z,100613.44
2023-04-18T08:58:27.023Z,100608.53
2023-04-18T09:00:57.750Z,100611.25
2023-04-18T09:03:44.002Z,100614.56
2023-04-18T09:06:20.278Z,100614.13
2023-04-18T09:09:04.428Z,100611.34
2023-04-18T09:11:35.841Z,100603.78
2023-04-18T09:14:06.039Z,100602.31
2023-04-18T09:16:48.100Z,100593.00
2023-04-18T09:19:20.870Z,100598.38
2023-04-18T09:21:58.637Z,100598.63
2023-04-18T09:24:30.050Z,100598.88
2023-04-18T09:27:01.268Z,100610.59
2023-04-18T09:29:48.175Z,100600.19
2023-04-18T09:32:26.314Z,100597.72
2023-04-18T09:35:00.595Z,100599.88
2023-04-18T09:37:32.730Z,100603.66
2023-04-18T09:40:17.574Z,100603.66
2023-04-18T09:42:49.463Z,100594.91
2023-04-18T09:45:19.597Z,100599.53
2023-04-18T09:47:50.174Z,100606.28
2023-04-18T09:50:22.240Z,100605.81
2023-04-18T09:52:52.626Z,100605.72
2023-04-18T09:55:23.465Z,100601.31
2023-04-18T09:57:55.217Z,100605.63
2023-04-18T10:00:26.876Z,100612.38
2023-04-18T10:02:57.658Z,100608.59
2023-04-18T10:05:33.252Z,100611.56
2023-04-18T10:08:04.505Z,100605.53
2023-04-18T10:10:34.756Z,100619.66
2023-04-18T10:13:07.191Z,100617.16
2023-04-18T10:15:37.693Z,100621.47
2023-04-18T10:18:12.044Z,100621.19
2023-04-18T10:20:43.204Z,100613.03
2023-04-18T10:23:31.924Z,100611.41
2023-04-18T10:26:02.918Z,100619.78
2023-04-18T10:28:53.329Z,100617.84
2023-04-18T10:31:28.620Z,100627.03
2023-04-18T10:34:05.816Z,100629.53
2023-04-18T10:36:37.448Z,100627.31
2023-04-18T10:39:23.735Z,100628.34
2023-04-18T10:41:54.456Z,100627.22
2023-04-18T10:44:24.856Z,100627.81
2023-04-18T10:46:55.182Z,100634.78
2023-04-18T10:49:27.828Z,100630.66
2023-04-18T10:52:00.444Z,100634.47
2023-04-18T10:54:32.325Z,100634.97
2023-04-18T10:57:04.870Z,100642.53
2023-04-18T10:59:35.911Z,100641.94
2023-04-18T11:02:08.809Z,100648.47
2023-04-18T11:04:39.399Z,100648.47
2023-04-18T11:07:09.678Z,100655.44
2023-04-18T11:09:40.447Z,100652.72
2023-04-18T11:12:12.246Z,100661.47
2023-04-18T11:14:50.253Z,100662.53
2023-04-18T11:17:25.138Z,100656.28
2023-04-18T11:20:02.796Z,100651.44
2023-04-18T11:22:33.141Z,100664.44
2023-04-18T11:25:09.398Z,100667.38
2023-04-18T11:27:40.102Z,100676.59
2023-04-18T11:30:10.962Z,100680.75
2023-04-18T11:32:41.852Z,100686.03
2023-04-18T11:35:13.569Z,100677.56
2023-04-18T11:37:44.566Z,100674.38
2023-04-18T11:40:15.870Z,100682.75
2023-04-18T11:42:46.193Z,100681.25
2023-04-18T11:45:17.643Z,100684.44
2023-04-18T11:47:47.982Z,100688.72
2023-04-18T11:50:18.450Z,100687.91
2023-04-18T11:52:51.607Z,100690.84
2023-04-18T11:55:23.190Z,100698.41
2023-04-18T11:57:54.860Z,100701.13
2023-04-18T12:00:41.497Z,100713.31
2023-04-18T12:03:18.725Z,100715.09
2023-04-18T12:05:49.420Z,100710.53
2023-04-18T12:08:21.435Z,100706.84
2023-04-18T12:10:52.400Z,100718.03
2023-04-18T12:13:42.644Z,100718.88
2023-04-18T12:16:14.104Z,100715.59
2023-04-18T12:18:44.334Z,100716.41
2023-04-18T12:21:15.330Z,100717.22
2023-04-18T12:23:47.401Z,100724.78
2023-04-18T12:26:24.458Z,100722.31
2023-04-18T12:28:55.533Z,100725.88
2023-04-18T12:31:25.949Z,100734.25
2023-04-18T12:33:56.585Z,100729.06
2023-04-18T12:36:29.852Z,100732.25
2023-04-18T12:39:00.090Z,100738.88
2023-04-18T12:41:30.314Z,100743.38
2023-04-18T12:44:00.683Z,100742.69
2023-04-18T12:46:31.035Z,100750.09
2023-04-18T12:49:01.959Z,100751.50
2023-04-18T12:51:32.967Z,100753.94
2023-04-18T12:54:03.153Z,100751.81
2023-04-18T12:56:33.340Z,100752.03
2023-04-18T12:59:03.524Z,100761.81
2023-04-18T13:01:33.793Z,100767.97
2023-04-18T13:04:12.512Z,100774.22
2023-04-18T13:06:43.384Z,100773.00
2023-04-18T13:09:13.946Z,100774.31
2023-04-18T13:11:44.442Z,100773.47
2023-04-18T13:14:14.890Z,100781.03
2023-04-18T13:16:45.762Z,100776.06
2023-04-18T13:19:16.200Z,100777.13
2023-04-18T13:21:48.432Z,100770.50
2023-04-18T13:24:19.891Z,100780.75
2023-04-18T13:26:50.013Z,100781.22
2023-04-18T13:29:20.576Z,100785.91
2023-04-18T13:31:51.503Z,100789.34
2023-04-18T13:34:21.673Z,100796.78
2023-04-18T13:36:52.106Z,100787.06
2023-04-18T13:39:24.188Z,100783.59
2023-04-18T13:41:56.541Z,100791.00
2023-04-18T13:44:28.247Z,100791.91
2023-04-18T13:46:59.911Z,100807.78
2023-04-18T13:49:30.411Z,100810.09
2023-04-18T13:52:00.984Z,100808.22
2023-04-18T13:54:32.666Z,100817.03
2023-04-18T13:57:12.883Z,100826.59
2023-04-18T13:59:43.607Z,100819.06
2023-04-18T14:02:14.110Z,100817.22
2023-04-18T14:04:45.051Z,100819.94
2023-04-18T14:07:15.473Z,100830.78
2023-04-18T14:09:45.750Z,100835.00
2023-04-18T14:12:16.074Z,100833.78
2023-04-18T14:14:46.256Z,100847.63
2023-04-18T14:17:16.539Z,100853.66
2023-04-18T14:19:46.905Z,100851.38
2023-04-18T14:22:17.123Z,100861.81
2023-04-18T14:24:47.635Z,100867.31
2023-04-18T14:27:18.307Z,100863.41
2023-04-18T14:29:50.233Z,100866.56
2023-04-18T14:32:21.053Z,100860.72
2023-04-18T14:34:52.165Z,100864.13
2023-04-18T14:37:22.795Z,100855.38
2023-04-18T14:39:53.080Z,100853.72
2023-04-18T14:42:28.236Z,100846.66
2023-04-18T14:44:58.608Z,100858.53
2023-04-18T14:47:33.123Z,100852.50
2023-04-18T14:50:03.554Z,100853.28
2023-04-18T14:52:33.888Z,100858.84
2023-04-18T14:55:04.202Z,100858.63
2023-04-18T14:57:35.650Z,100859.47
2023-04-18T15:00:11.383Z,100863.00
2023-04-18T15:02:42.094Z,100864.06
2023-04-18T15:05:13.260Z,100869.69
2023-04-18T15:07:45.008Z,100865.69
2023-04-18T15:10:16.566Z,100863.84
2023-04-18T15:12:48.262Z,100866.56
2023-04-18T15:15:18.790Z,100864.69
2023-04-18T15:17:48.889Z,100864.88
2023-04-18T15:20:19.251Z,100869.91
2023-04-18T15:22:49.991Z,100865.78
2023-04-18T15:25:20.119Z,100869.97
2023-04-18T15:27:50.786Z,100862.91
2023-04-18T15:30:21.457Z,100868.53
2023-04-18T15:32:51.770Z,100860.00
2023-04-18T15:35:22.471Z,100862.94
2023-04-18T15:37:55.103Z,100867.94
2023-04-18T15:40:26.705Z,100864.19
2023-04-18T15:42:59.069Z,100869.22
2023-04-18T15:45:29.307Z,100861.75
2023-04-18T15:48:00.216Z,100867.38
2023-04-18T15:50:32.116Z,100866.53
2023-04-18T15:53:03.702Z,100869.25
2023-04-18T15:55:34.347Z,100864.28
2023-04-18T15:58:04.849Z,100876.16
2023-04-18T16:00:35.275Z,100868.50
2023-04-18T16:03:06.288Z,100870.56
2023-04-18T16:05:36.967Z,100867.88
2023-04-18T16:08:07.777Z,100868.06
2023-04-18T16:10:38.746Z,100870.19
2023-04-18T16:13:08.902Z,100866.63
2023-04-18T16:15:43.434Z,100866.47
2023-04-18T16:18:13.705Z,100830.38
2023-04-18T16:20:44.143Z,100874.16
2023-04-18T16:23:14.490Z,100864.81
2023-04-18T16:25:44.626Z,100863.78
2023-04-18T16:28:14.938Z,100867.31
2023-04-18T16:30:47.105Z,100867.50
2023-04-18T16:33:17.684Z,100853.16
2023-04-18T16:35:47.803Z,100855.03
2023-04-18T16:38:17.981Z,100859.00
2023-04-18T16:40:48.211Z,100845.28
2023-04-18T16:43:18.587Z,100847.78
2023-04-18T16:45:48.740Z,100836.78
2023-04-18T16:48:19.799Z,100839.50
2023-04-18T16:50:49.967Z,100841.56
2023-04-18T16:53:20.669Z,100841.19
2023-04-18T16:55:54.704Z,100843.28
2023-04-18T16:58:25.065Z,100823.28
2023-04-18T17:00:55.378Z,100824.53
2023-04-18T17:03:25.734Z,100823.28
2023-04-18T17:05:56.066Z,100822.47
2023-04-18T17:08:27.290Z,100822.69
2023-04-18T17:11:01.042Z,100820.00
2023-04-18T17:13:32.865Z,100812.06
2023-04-18T17:16:04.421Z,100815.19
2023-04-18T17:18:34.677Z,100804.34
2023-04-18T17:21:04.998Z,100809.16
2023-04-18T17:23:35.101Z,100801.03
2023-04-18T17:26:05.289Z,100798.78
2023-04-18T17:28:35.525Z,100793.59
2023-04-18T17:31:06.274Z,100793.34
2023-04-18T17:33:36.952Z,100779.22
2023-04-18T17:36:07.718Z,100780.28
2023-04-18T17:38:37.922Z,100779.66
2023-04-18T17:41:08.133Z,100785.06
2023-04-18T17:43:38.303Z,100783.41
2023-04-18T17:46:08.725Z,100776.94
2023-04-18T17:48:39.827Z,100774.25
2023-04-18T17:51:09.946Z,100774.25
2023-04-18T17:53:40.107Z,100764.47
2023-04-18T17:56:11.640Z,100765.53
2023-04-18T17:58:41.821Z,100763.84
2023-04-18T18:01:22.513Z,100756.56
2023-04-18T18:03:55.024Z,100753.47
2023-04-18T18:06:25.344Z,100749.72
2023-04-18T18:08:55.907Z,100745.16
2023-04-18T18:11:26.027Z,100744.31
2023-04-18T18:13:57.109Z,100742.66
2023-04-18T18:16:27.540Z,100743.91
2023-04-18T18:18:57.817Z,100741.44
2023-04-18T18:21:28.550Z,100729.19
2023-04-18T18:23:58.837Z,100744.59
2023-04-18T18:26:29.233Z,100727.75
2023-04-18T18:28:59.684Z,100730.44
2023-04-18T18:31:30.177Z,100727.75
2023-04-18T18:34:00.778Z,100723.38
2023-04-18T18:36:31.446Z,100721.09
2023-04-18T18:39:02.042Z,100712.97
2023-04-18T18:41:50.742Z,100714.03
2023-04-18T18:44:20.894Z,100704.50
2023-04-18T18:46:51.101Z,100710.72
2023-04-18T18:49:21.807Z,100710.72
2023-04-18T18:51:52.033Z,100706.38
2023-04-18T18:54:22.369Z,100700.34
2023-04-18T18:56:53.192Z,100704.94
2023-04-18T18:59:23.416Z,100695.56
2023-04-18T19:01:53.553Z,100691.59
2023-04-18T19:04:23.902Z,100687.88
2023-04-18T19:06:55.007Z,100692.47
2023-04-18T19:09:25.074Z,100687.25
2023-04-18T19:11:56.382Z,100673.75
2023-04-18T19:14:26.620Z,100676.44
2023-04-18T19:16:59.256Z,100672.09
2023-04-18T19:19:29.430Z,100667.72
2023-04-18T19:21:59.723Z,100677.94
2023-04-18T19:24:30.069Z,100672.53
2023-04-18T19:27:01.223Z,100670.03
2023-04-18T19:29:32.794Z,100663.81
2023-04-18T19:32:03.464Z,100664.81
2023-04-18T19:34:33.896Z,100656.72
2023-04-18T19:37:05.035Z,100655.91
2023-04-18T19:39:35.238Z,100652.38
2023-04-18T19:42:06.607Z,100647.19
2023-04-18T19:44:37.011Z,100648.84
2023-04-18T19:47:07.225Z,100646.34
2023-04-18T19:49:38.155Z,100651.75
2023-04-18T19:52:08.271Z,100651.75
2023-04-18T19:54:38.440Z,100650.09
2023-04-18T19:57:08.780Z,100646.78
2023-04-18T19:59:38.965Z,100651.38
2023-04-18T20:02:09.169Z,100659.72
2023-04-18T20:04:39.752Z,100652.63
2023-04-18T20:07:10.011Z,100654.72
2023-04-18T20:09:40.761Z,100653.06
2023-04-18T20:12:10.963Z,100668.84
2023-04-18T20:14:41.648Z,100658.28
2023-04-18T20:17:11.950Z,100661.19
2023-04-18T20:19:42.771Z,100662.63
2023-04-18T20:22:12.850Z,100663.91
2023-04-18T20:24:43.121Z,100664.91
2023-04-18T20:27:13.956Z,100658.94
2023-04-18T20:29:44.360Z,100664.53
2023-04-18T20:32:14.883Z,100659.56
2023-04-18T20:34:44.941Z,100653.53
2023-04-18T20:37:20.134Z,100653.97
2023-04-18T20:39:50.303Z,100652.75
2023-04-18T20:42:21.552Z,100651.72
2023-04-18T20:44:52.199Z,100650.06
2023-04-18T20:47:22.827Z,100647.78
2023-04-18T20:49:53.812Z,100647.78
2023-04-18T20:52:24.152Z,100633.66
2023-04-18T20:54:54.515Z,100646.13
2023-04-18T20:57:24.688Z,100640.09
2023-04-18T20:59:54.885Z,100639.50
2023-04-18T21:02:25.118Z,100640.75
2023-04-18T21:04:55.570Z,100649.06
2023-04-18T21:07:25.755Z,100648.25
2023-04-18T21:09:55.784Z,100637.88
2023-04-18T21:12:25.869Z,100635.81
2023-04-18T21:14:56.045Z,100635.81
2023-04-18T21:17:27.001Z,100633.34
2023-04-18T21:19:57.354Z,100627.31
2023-04-18T21:22:28.105Z,100631.06
2023-04-18T21:24:58.260Z,100627.94
2023-04-18T21:27:28.340Z,100628.38
2023-04-18T21:29:58.476Z,100624.03
2023-04-18T21:32:28.699Z,100625.06
2023-04-18T21:34:59.430Z,100632.31
2023-04-18T21:37:30.343Z,100626.34
2023-04-18T21:40:00.497Z,100624.63
2023-04-18T21:42:30.686Z,100616.75
2023-04-18T21:45:00.874Z,100622.16
2023-04-18T21:47:31.122Z,100625.88
2023-04-18T21:50:01.857Z,100634.59
2023-04-18T21:52:32.248Z,100624.00
2023-04-18T21:55:02.601Z,100642.50
2023-04-18T21:57:32.763Z,100638.38
2023-04-18T22:00:02.954Z,100645.22
2023-04-18T22:02:39.216Z,100647.09
2023-04-18T22:05:10.378Z,100645.63
2023-04-18T22:07:54.487Z,100644.00
2023-04-18T22:10:28.029Z,100641.72
2023-04-18T22:12:59.925Z,100648.75
2023-04-18T22:15:30.249Z,100646.25
2023-04-18T22:18:00.986Z,100641.88
2023-04-18T22:20:32.982Z,100651.03
2023-04-18T22:23:05.821Z,100655.38
2023-04-18T22:25:35.997Z,100651.28
2023-04-18T22:28:06.457Z,100660.81
2023-04-18T22:30:36.581Z,100653.53
2023-04-18T22:33:06.809Z,100660.41
2023-04-18T22:35:37.133Z,100660.41
2023-04-18T22:38:07.724Z,100662.72
2023-04-18T22:40:38.198Z,100662.91
2023-04-18T22:43:08.293Z,100668.34
2023-04-18T22:45:38.427Z,100669.59
2023-04-18T22:48:12.777Z,100665.63
2023-04-18T22:50:51.798Z,100680.38
2023-04-18T22:53:22.462Z,100666.06
2023-04-18T22:55:52.972Z,100679.97
2023-04-18T22:58:23.168Z,100687.25
2023-04-18T23:00:53.573Z,100677.72
2023-04-18T23:03:24.128Z,100683.31
2023-04-18T23:05:54.953Z,100692.41
2023-04-18T23:08:25.185Z,100683.03
2023-04-18T23:10:55.900Z,100689.47
2023-04-18T23:13:29.195Z,100695.66
2023-04-18T23:15:59.988Z,100690.69
2023-04-18T23:18:33.342Z,100697.69
2023-04-18T23:21:03.585Z,100694.47
2023-04-18T23:23:34.180Z,100702.53
2023-04-18T23:26:04.470Z,100707.50
2023-04-18T23:28:34.881Z,100704.31
2023-04-18T23:31:05.184Z,100711.13
2023-04-18T23:33:35.484Z,100723.53
2023-04-18T23:36:05.745Z,100723.53
2023-04-18T23:38:38.595Z,100725.34
2023-04-18T23:41:08.696Z,100719.88
2023-04-18T23:43:38.958Z,100731.97
2023-04-18T23:46:09.097Z,100735.88
2023-04-18T23:48:39.413Z,100742.50
2023-04-18T23:51:10.487Z,100733.34
2023-04-18T23:53:40.652Z,100739.53
2023-04-18T23:56:13.663Z,100746.16
2023-04-18T23:58:43.882Z,100753.63
